Time;durP1;ratioP1;P1;durP2;ratioP2;P2;SDS_P1;SDS_P2;PMS_P1;PMS_P2;Temp;Humidity;BMP_temperature;BMP_pressure;BME280_temperature;BME280_humidity;BME280_pressure;Samples;Min_cycle;Max_cycle;Signal;HPM_P1;HPM_P2
2024/01/06 00:00:49;;;;;;;7.43;4.80;;;;;;;10.53;57.75;100463.72;4213283;28;20052;-53
2024/01/06 00:02:51;;;;;;;9.43;5.72;;;;;;;10.53;57.97;100463.72;4212707;28;20418;-53
2024/01/06 00:04:53;;;;;;;8.90;5.35;;;;;;;10.50;57.91;100462.06;4213169;28;20210;-52
2024/01/06 00:06:55;;;;;;;8.00;5.00;;;;;;;10.53;57.75;100461.09;4213428;28;20048;-52
2024/01/06 00:08:56;;;;;;;8.23;5.05;;;;;;;10.53;57.96;100466.34;4213122;28;20540;-53
2024/01/06 00:10:58;;;;;;;8.48;5.13;;;;;;;10.49;57.95;100465.63;4213078;28;20052;-54
2024/01/06 00:13:00;;;;;;;7.50;4.97;;;;;;;10.53;57.90;100467.22;4213262;28;20052;-52
2024/01/06 00:15:02;;;;;;;9.07;5.00;;;;;;;10.54;58.21;100468.06;4213105;28;20054;-55
2024/01/06 00:17:04;;;;;;;7.18;5.03;;;;;;;10.51;57.52;100462.91;4212728;28;20044;-53
2024/01/06 00:19:06;;;;;;;7.88;4.88;;;;;;;10.52;57.78;100470.78;4213000;28;20137;-50
2024/01/06 00:21:08;;;;;;;8.23;4.88;;;;;;;10.51;57.70;100469.06;4213145;28;20071;-54
2024/01/06 00:23:12;;;;;;;8.80;5.20;;;;;;;10.51;57.96;100469.06;4213328;28;20075;-50
2024/01/06 00:25:14;;;;;;;9.13;4.95;;;;;;;10.52;57.71;100478.66;4211701;28;20044;-54
2024/01/06 00:27:16;;;;;;;8.63;5.07;;;;;;;10.50;57.88;100469.97;4213083;28;20086;-53
2024/01/06 00:29:18;;;;;;;7.38;5.20;;;;;;;10.49;57.89;100470.03;4212862;28;20414;-54
2024/01/06 00:31:19;;;;;;;7.70;5.30;;;;;;;10.48;57.69;100469.16;4212582;28;20438;-54
2024/01/06 00:33:21;;;;;;;8.82;4.72;;;;;;;10.49;58.05;100470.03;4212749;28;20048;-53
2024/01/06 00:35:23;;;;;;;7.95;4.80;;;;;;;10.49;57.63;100478.75;4212755;28;20071;-53
2024/01/06 00:37:25;;;;;;;8.20;4.50;;;;;;;10.46;57.61;100467.50;4212862;28;20044;-54
2024/01/06 00:39:26;;;;;;;7.45;4.63;;;;;;;10.47;57.91;100461.34;4213075;28;20114;-57
2024/01/06 00:41:28;;;;;;;6.97;4.53;;;;;;;10.46;57.76;100470.13;4213257;28;20072;-54
2024/01/06 00:43:30;;;;;;;7.40;4.47;;;;;;;10.47;57.78;100464.81;4212890;28;20052;-54
2024/01/06 00:45:31;;;;;;;8.27;5.05;;;;;;;10.49;58.05;100473.50;4212760;28;20106;-54
2024/01/06 00:47:33;;;;;;;8.57;5.25;;;;;;;10.47;57.78;100471.84;4212507;28;20044;-54
2024/01/06 00:49:35;;;;;;;7.28;4.78;;;;;;;10.47;57.68;100477.97;4212864;28;20414;-54
2024/01/06 00:51:36;;;;;;;7.28;4.05;;;;;;;10.47;57.57;100477.13;4212633;28;20048;-52
2024/01/06 00:53:40;;;;;;;7.65;4.50;;;;;;;10.45;57.99;100484.19;4212679;28;20176;-53
2024/01/06 00:55:42;;;;;;;8.18;4.68;;;;;;;10.43;57.67;100476.38;4212921;28;20066;-55
2024/01/06 00:57:44;;;;;;;7.40;4.70;;;;;;;10.43;58.01;100475.53;4211517;28;20048;-55
2024/01/06 00:59:46;;;;;;;7.55;4.88;;;;;;;10.45;57.84;100486.81;4212735;28;20484;-53
2024/01/06 01:01:47;;;;;;;6.57;4.43;;;;;;;10.45;58.46;100486.81;4212295;28;20080;-53
2024/01/06 01:03:49;;;;;;;8.10;4.70;;;;;;;10.44;57.57;100493.88;4212670;28;20509;-53
2024/01/06 01:05:51;;;;;;;7.47;4.55;;;;;;;10.44;58.00;100487.72;4212721;28;20513;-53
2024/01/06 01:07:53;;;;;;;7.95;4.30;;;;;;;10.44;57.60;100493.88;4212733;28;20093;-53
2024/01/06 01:09:56;;;;;;;7.15;4.45;;;;;;;10.43;57.42;100491.31;4212395;28;20125;-53
2024/01/06 01:11:58;;;;;;;7.32;4.30;;;;;;;10.43;57.90;100494.78;4212782;28;20127;-51
2024/01/06 01:13:59;;;;;;;7.90;4.45;;;;;;;10.41;57.71;100504.50;4213867;28;20462;-54
2024/01/06 01:16:02;;;;;;;7.43;4.38;;;;;;;10.42;57.88;100497.47;4215348;28;20056;-53
2024/01/06 01:18:04;;;;;;;7.43;4.57;;;;;;;10.39;57.73;100501.94;4215570;28;20122;-51
2024/01/06 01:20:06;;;;;;;8.93;4.68;;;;;;;10.41;58.04;100508.91;4215399;28;20040;-52
2024/01/06 01:22:08;;;;;;;7.53;3.90;;;;;;;10.40;57.85;100510.66;4215408;28;20071;-52
2024/01/06 01:24:10;;;;;;;7.40;4.57;;;;;;;10.40;58.03;100505.41;4215424;28;20093;-52
2024/01/06 01:26:11;;;;;;;7.30;4.15;;;;;;;10.41;57.67;100511.53;4215573;28;20545;-51
2024/01/06 01:28:13;;;;;;;7.18;4.53;;;;;;;10.39;57.82;100506.34;4215494;28;20070;-54
2024/01/06 01:30:18;;;;;;;8.98;4.55;;;;;;;10.38;57.78;100510.72;4214936;28;20113;-53
2024/01/06 01:32:19;;;;;;;7.45;4.45;;;;;;;10.39;57.64;100515.06;4215313;28;20142;-55
2024/01/06 01:34:21;;;;;;;7.18;4.20;;;;;;;10.37;58.04;100511.63;4214170;28;20449;-52
2024/01/06 01:36:23;;;;;;;6.55;3.97;;;;;;;10.36;58.13;100515.22;4215430;28;20048;-52
2024/01/06 01:38:25;;;;;;;7.28;4.38;;;;;;;10.38;57.75;100520.41;4215287;28;20483;-52
2024/01/06 01:40:27;;;;;;;6.47;4.05;;;;;;;10.36;57.89;100509.03;4215194;28;20062;-54
2024/01/06 01:42:28;;;;;;;7.65;4.70;;;;;;;10.37;57.77;100519.53;4215185;28;20090;-50
2024/01/06 01:44:30;;;;;;;8.45;4.30;;;;;;;10.36;57.75;100515.22;4215015;28;20067;-54
2024/01/06 01:46:32;;;;;;;8.90;5.05;;;;;;;10.37;57.74;100521.31;4215077;28;20311;-50
2024/01/06 01:48:34;;;;;;;6.78;3.90;;;;;;;10.36;57.96;100528.34;4215326;28;20101;-54
2024/01/06 01:50:36;;;;;;;7.18;4.25;;;;;;;10.35;58.00;100529.22;4214660;28;20051;-54
2024/01/06 01:52:40;;;;;;;6.88;4.47;;;;;;;10.35;57.95;100531.84;4215025;28;20167;-53
2024/01/06 01:54:44;;;;;;;6.88;4.50;;;;;;;10.33;57.96;100527.56;4214653;28;20055;-52
2024/01/06 01:56:46;;;;;;;8.18;4.72;;;;;;;10.34;57.90;100527.50;4214566;28;20055;-53
2024/01/06 01:58:48;;;;;;;7.50;4.75;;;;;;;10.34;57.62;100527.50;4214341;28;20063;-54
2024/01/06 02:00:49;;;;;;;7.22;4.28;;;;;;;10.35;57.83;100531.84;4214911;28;20449;-52
2024/01/06 02:02:52;;;;;;;7.95;4.53;;;;;;;10.33;57.53;100533.69;4214975;28;20048;-55
2024/01/06 02:04:56;;;;;;;7.13;4.45;;;;;;;10.33;57.79;100538.94;4214528;28;20052;-53
2024/01/06 02:06:57;;;;;;;7.72;4.20;;;;;;;10.33;57.77;100530.19;4214743;28;20055;-51
2024/01/06 02:08:59;;;;;;;6.85;4.32;;;;;;;10.33;57.63;100538.09;4214774;28;20127;-52
2024/01/06 02:11:01;;;;;;;7.53;4.47;;;;;;;10.27;57.68;100523.41;4214778;28;20396;-52
2024/01/06 02:13:10;;;;;;;7.53;4.22;;;;;;;10.33;57.65;100546.81;4214390;28;20067;-52
2024/01/06 02:15:15;;;;;;;6.47;4.25;;;;;;;10.30;57.55;100546.91;4214442;28;20082;-54
2024/01/06 02:17:16;;;;;;;6.45;4.20;;;;;;;10.27;57.63;100541.78;4214156;28;20052;-52
2024/01/06 02:19:18;;;;;;;6.53;4.13;;;;;;;10.29;57.82;100549.63;4214442;28;20052;-53
2024/01/06 02:21:22;;;;;;;6.50;4.32;;;;;;;10.30;57.89;100548.69;4214276;28;20044;-52
2024/01/06 02:23:25;;;;;;;8.10;4.43;;;;;;;10.31;57.65;100555.69;4214496;28;20070;-54
2024/01/06 02:25:27;;;;;;;7.05;4.20;;;;;;;10.27;57.75;100554.06;4214514;28;20088;-55
2024/01/06 02:27:28;;;;;;;7.40;4.40;;;;;;;10.30;57.42;100557.44;4214108;28;20465;-52
2024/01/06 02:29:30;;;;;;;6.75;4.40;;;;;;;10.29;57.97;100552.25;4214386;28;20059;-50
2024/01/06 02:31:32;;;;;;;7.35;5.00;;;;;;;10.29;57.47;100557.50;4214334;28;20683;-53
2024/01/06 02:33:34;;;;;;;7.28;4.18;;;;;;;10.28;57.79;100564.53;4213132;28;20471;-54
2024/01/06 02:35:36;;;;;;;9.02;4.32;;;;;;;10.30;57.66;100569.72;4214399;28;20052;-54
2024/01/06 02:37:38;;;;;;;8.07;4.72;;;;;;;10.27;57.77;100560.19;4214370;28;20130;-52
2024/01/06 02:39:39;;;;;;;7.88;4.20;;;;;;;10.29;57.62;100562.75;4214416;28;20406;-52
2024/01/06 02:41:41;;;;;;;6.35;4.30;;;;;;;10.29;57.69;100568.88;4214266;28;20052;-54
2024/01/06 02:43:43;;;;;;;6.80;4.53;;;;;;;10.29;57.38;100568.88;4213952;28;20515;-52
2024/01/06 02:45:46;;;;;;;7.05;4.40;;;;;;;10.29;57.53;100573.28;4213944;28;20054;-54
2024/01/06 02:47:48;;;;;;;6.57;4.30;;;;;;;10.29;57.80;100565.38;4214109;28;20055;-56
2024/01/06 02:49:50;;;;;;;7.35;4.72;;;;;;;10.27;57.70;100567.19;4213995;28;20048;-52
2024/01/06 02:51:52;;;;;;;6.82;4.30;;;;;;;10.24;57.59;100573.44;4212889;28;20052;-54
2024/01/06 02:53:53;;;;;;;7.63;4.13;;;;;;;10.28;57.29;100575.06;4214195;28;20186;-50
2024/01/06 02:55:56;;;;;;;7.18;4.45;;;;;;;10.23;57.66;100583.09;4214145;28;20052;-55
2024/01/06 02:57:57;;;;;;;6.25;4.10;;;;;;;10.27;57.38;100589.09;4213586;28;20462;-54
2024/01/06 02:59:59;;;;;;;6.97;3.90;;;;;;;10.26;57.56;100589.16;4213790;28;20063;-48
2024/01/06 03:02:01;;;;;;;8.15;4.50;;;;;;;10.26;57.55;100584.75;4213962;28;20051;-51
2024/01/06 03:04:03;;;;;;;7.65;4.43;;;;;;;10.27;57.60;100596.13;4214216;28;20109;-53
2024/01/06 03:06:05;;;;;;;6.13;4.15;;;;;;;10.25;57.70;100592.72;4213819;28;20048;-53
2024/01/06 03:08:07;;;;;;;7.05;4.65;;;;;;;10.25;57.69;100598.81;4213780;28;20044;-53
2024/01/06 03:10:09;;;;;;;7.90;4.72;;;;;;;10.23;57.71;100595.38;4213782;28;20051;-55
2024/01/06 03:12:11;;;;;;;6.50;4.28;;;;;;;10.24;57.62;100597.09;4213799;28;20047;-51
2024/01/06 03:14:12;;;;;;;5.95;4.20;;;;;;;10.24;57.83;100597.09;4213831;28;20048;-54
2024/01/06 03:16:14;;;;;;;6.25;4.22;;;;;;;10.23;57.49;100598.88;4214007;28;20044;-53
2024/01/06 03:18:16;;;;;;;6.30;3.88;;;;;;;10.20;57.72;100590.25;4213626;28;20097;-54
2024/01/06 03:20:18;;;;;;;7.32;4.28;;;;;;;10.22;57.86;100597.16;4213678;28;20040;-53
2024/01/06 03:22:20;;;;;;;7.32;4.20;;;;;;;10.23;57.92;100598.88;4213688;28;20139;-52
2024/01/06 03:24:23;;;;;;;8.05;4.60;;;;;;;10.23;57.53;100596.25;4212648;28;20118;-56
2024/01/06 03:26:25;;;;;;;6.13;3.97;;;;;;;10.22;57.39;100596.31;4213160;28;20051;-51
2024/01/06 03:28:26;;;;;;;7.47;4.10;;;;;;;10.16;57.85;100591.28;4213674;28;20472;-53
2024/01/06 03:30:28;;;;;;;7.20;4.35;;;;;;;10.23;57.92;100605.88;4213563;28;20056;-54
2024/01/06 03:32:30;;;;;;;6.45;4.05;;;;;;;10.22;57.63;100612.06;4213754;28;20072;-52
2024/01/06 03:34:32;;;;;;;6.30;4.30;;;;;;;10.19;57.87;100605.13;4213609;28;20043;-53
2024/01/06 03:36:34;;;;;;;;;;;;;;;10.21;57.45;100608.56;4213162;28;20079;-54
2024/01/06 03:38:36;;;;;;;6.50;4.10;;;;;;;10.20;57.59;100612.09;4213547;28;19920;-52
2024/01/06 03:40:38;;;;;;;7.82;4.53;;;;;;;10.20;57.58;100608.63;4195245;28;20123;-53
2024/01/06 03:42:39;;;;;;;6.63;4.18;;;;;;;10.14;57.95;100601.81;4213581;28;20212;-53
2024/01/06 03:44:41;;;;;;;6.32;4.05;;;;;;;10.21;57.62;100624.34;4213162;28;20048;-50
2024/01/06 03:46:43;;;;;;;6.75;4.40;;;;;;;10.19;57.83;100615.66;4213406;28;20048;-50
2024/01/06 03:48:44;;;;;;;6.85;4.28;;;;;;;10.22;57.49;100612.06;4213510;28;20479;-52
2024/01/06 03:50:46;;;;;;;8.02;4.57;;;;;;;10.21;57.90;100613.00;4213475;28;20060;-54
2024/01/06 03:52:48;;;;;;;8.57;4.45;;;;;;;10.20;57.81;100614.75;4213335;28;20078;-53
2024/01/06 03:54:50;;;;;;;6.80;4.07;;;;;;;10.21;57.63;100619.09;4212869;28;20056;-53
2024/01/06 03:56:51;;;;;;;7.05;4.45;;;;;;;10.21;57.38;100618.25;4213409;28;20051;-53
2024/01/06 03:58:53;;;;;;;5.95;3.90;;;;;;;10.21;57.67;100626.97;4213244;28;20113;-53
2024/01/06 04:00:55;;;;;;;7.03;4.35;;;;;;;10.21;57.74;100620.88;4212167;28;20056;-51
2024/01/06 04:02:57;;;;;;;7.32;4.38;;;;;;;10.21;57.88;100632.22;4212202;28;20143;-53
2024/01/06 04:04:58;;;;;;;6.05;4.30;;;;;;;10.19;57.38;100627.94;4213266;28;20090;-52
2024/01/06 04:07:06;;;;;;;6.30;3.90;;;;;;;10.20;57.66;100627.03;4213236;28;20059;-53
2024/01/06 04:09:09;;;;;;;7.05;4.10;;;;;;;10.19;57.43;100628.78;4212948;28;20495;-51
2024/01/06 04:11:11;;;;;;;6.53;4.15;;;;;;;10.19;57.57;100634.03;4213249;28;20513;-53
2024/01/06 04:13:13;;;;;;;8.25;4.63;;;;;;;10.17;57.60;100628.00;4213489;28;20101;-55
2024/01/06 04:15:14;;;;;;;6.70;4.40;;;;;;;10.18;57.43;100629.72;4213294;28;20071;-52
2024/01/06 04:17:16;;;;;;;7.70;4.50;;;;;;;10.19;57.54;100633.19;4213027;28;20491;-52
2024/01/06 04:19:17;;;;;;;6.80;4.40;;;;;;;10.17;58.15;100632.38;4212967;28;20040;-53
2024/01/06 04:21:19;;;;;;;8.18;4.80;;;;;;;10.17;57.56;100638.53;4213270;28;20475;-50
2024/01/06 04:23:21;;;;;;;7.60;4.38;;;;;;;10.17;58.02;100643.78;4212753;28;20048;-54
2024/01/06 04:25:26;;;;;;;7.65;4.15;;;;;;;10.16;57.77;100641.22;4213157;28;20552;-54
2024/01/06 04:27:28;;;;;;;7.45;4.50;;;;;;;10.18;57.83;100650.75;4212053;28;20119;-54
2024/01/06 04:29:30;;;;;;;7.32;4.13;;;;;;;10.16;57.72;100643.84;4213110;28;20048;-51
2024/01/06 04:31:31;;;;;;;6.13;4.18;;;;;;;10.16;57.80;100646.47;4213069;28;20071;-52
2024/01/06 04:33:33;;;;;;;7.18;4.38;;;;;;;10.18;57.55;100649.88;4212760;28;20123;-52
2024/01/06 04:35:35;;;;;;;7.55;4.38;;;;;;;10.18;57.62;100652.50;4213063;28;20048;-52
2024/01/06 04:37:36;;;;;;;7.35;4.55;;;;;;;10.18;57.68;100650.75;4212727;28;20048;-51
2024/01/06 04:39:38;;;;;;;6.47;4.55;;;;;;;10.18;57.85;100650.75;4212747;28;20078;-49
2024/01/06 04:41:40;;;;;;;7.43;4.80;;;;;;;10.17;57.37;100649.03;4213182;28;20048;-51
2024/01/06 04:43:41;;;;;;;7.05;4.78;;;;;;;10.18;57.81;100647.25;4213082;28;20058;-47
2024/01/06 04:45:43;;;;;;;6.97;4.60;;;;;;;10.17;57.68;100654.28;4212746;28;20072;-52
2024/01/06 04:47:45;;;;;;;8.73;5.30;;;;;;;10.16;57.53;100655.19;4213029;28;20048;-51
2024/01/06 04:49:47;;;;;;;8.65;5.45;;;;;;;10.17;57.69;100661.28;4215738;28;20153;-52
2024/01/06 04:51:49;;;;;;;8.25;6.00;;;;;;;10.17;57.75;100661.28;4216121;28;20129;-50
2024/01/06 04:53:50;;;;;;;7.68;5.63;;;;;;;10.14;57.39;100658.78;4215573;28;20048;-54
2024/01/06 04:55:52;;;;;;;8.48;5.60;;;;;;;10.15;57.55;100663.97;4216099;28;20052;-52
2024/01/06 04:57:54;;;;;;;7.72;5.63;;;;;;;10.13;57.44;100660.53;4216042;28;20422;-52
2024/01/06 04:59:56;;;;;;;7.47;5.63;;;;;;;10.15;57.66;100663.13;4214658;28;20083;-54
2024/01/06 05:01:59;;;;;;;;;;;;;;;10.13;57.51;100665.78;4215127;28;20048;-53
2024/01/06 05:04:00;;;;;;;7.88;5.47;;;;;;;10.12;57.91;100666.72;4214644;28;19920;-53
2024/01/06 05:06:03;;;;;;;8.80;5.22;;;;;;;10.14;57.55;100670.16;4215747;28;20054;-52
2024/01/06 05:08:05;;;;;;;7.90;5.47;;;;;;;10.10;57.94;100670.31;4215487;28;20460;-52
2024/01/06 05:10:07;;;;;;;8.23;5.65;;;;;;;10.14;57.69;100674.56;4215870;28;20052;-52
2024/01/06 05:12:09;;;;;;;;;;;;;;;10.12;57.96;100672.00;4216200;28;20079;-53
2024/01/06 05:14:11;;;;;;;7.73;5.53;;;;;;;10.11;57.69;100672.03;4215999;28;19927;-52
2024/01/06 05:16:12;;;;;;;9.43;5.85;;;;;;;10.12;57.67;100676.38;4215948;28;20091;-54
2024/01/06 05:18:14;;;;;;;8.90;5.90;;;;;;;10.11;57.98;100674.66;4214471;28;20128;-51
2024/01/06 05:20:16;;;;;;;8.50;5.57;;;;;;;10.13;58.03;100676.31;4215650;28;20122;-54
2024/01/06 05:22:18;;;;;;;7.80;5.72;;;;;;;10.12;57.71;100682.50;4215509;28;20059;-53
2024/01/06 05:24:20;;;;;;;8.75;6.07;;;;;;;10.10;57.78;100680.81;4215604;28;20482;-52
2024/01/06 05:26:22;;;;;;;7.63;5.50;;;;;;;10.11;57.89;100685.16;4215685;28;20072;-52
2024/01/06 05:28:24;;;;;;;8.43;5.55;;;;;;;10.10;57.66;100684.31;4215566;28;20047;-50
2024/01/06 05:30:25;;;;;;;8.50;6.03;;;;;;;10.11;57.99;100687.78;4215557;28;20052;-53
2024/01/06 05:32:31;;;;;;;8.02;5.30;;;;;;;10.09;57.84;100690.47;4215535;28;20077;-53
2024/01/06 05:34:33;;;;;;;7.63;5.50;;;;;;;10.06;57.96;100688.81;4215244;28;20095;-50
2024/01/06 05:36:35;;;;;;;8.00;5.72;;;;;;;10.06;57.61;100682.69;4214992;28;20119;-49
2024/01/06 05:38:37;;;;;;;7.05;5.28;;;;;;;10.07;57.86;100687.91;4215292;28;20147;-54
2024/01/06 05:40:39;;;;;;;8.32;5.38;;;;;;;10.09;57.78;100687.00;4215288;28;20086;-53
2024/01/06 05:42:40;;;;;;;8.40;5.20;;;;;;;10.08;58.13;100688.75;4215320;28;20075;-52
2024/01/06 05:44:47;;;;;;;7.03;5.07;;;;;;;10.10;57.94;100693.94;4215031;28;20048;-51
2024/01/06 05:46:49;;;;;;;8.27;5.53;;;;;;;10.08;58.12;100688.75;4215322;28;20410;-53
2024/01/06 05:48:50;;;;;;;7.45;5.32;;;;;;;10.05;57.92;100687.09;4215321;28;20117;-51
2024/01/06 05:50:52;;;;;;;8.27;5.30;;;;;;;10.07;57.76;100687.91;4214737;28;20105;-53
2024/01/06 05:52:54;;;;;;;8.00;5.10;;;;;;;10.06;57.81;100688.81;4215141;28;20483;-54
2024/01/06 05:54:58;;;;;;;7.45;4.70;;;;;;;10.05;57.88;100692.34;4215320;28;20352;-53
2024/01/06 05:57:00;;;;;;;7.85;5.35;;;;;;;10.05;57.79;100691.50;4214895;28;20364;-54
2024/01/06 05:59:02;;;;;;;7.78;4.95;;;;;;;10.05;57.84;100700.22;4214661;28;20445;-53
2024/01/06 06:01:04;;;;;;;;;;;;;;;10.05;57.94;100704.66;4215619;28;20052;-48
2024/01/06 06:03:07;;;;;;;7.18;4.85;;;;;;;10.02;58.27;100702.09;4215052;28;19930;-53
2024/01/06 06:05:10;;;;;;;6.57;4.55;;;;;;;10.01;58.14;100711.78;4214459;28;20044;-52
2024/01/06 06:07:11;;;;;;;7.32;4.78;;;;;;;10.02;57.70;100720.50;4214989;28;20403;-52
2024/01/06 06:09:13;;;;;;;7.10;5.15;;;;;;;10.03;57.87;100719.59;4213877;28;20060;-53
2024/01/06 06:11:16;;;;;;;7.03;4.75;;;;;;;10.02;57.95;100723.97;4214878;28;20074;-50
2024/01/06 06:13:18;;;;;;;7.43;4.60;;;;;;;10.03;58.07;100725.69;4214587;28;20165;-52
2024/01/06 06:15:20;;;;;;;8.15;5.28;;;;;;;10.02;57.58;100728.38;4213700;28;20075;-52
2024/01/06 06:17:21;;;;;;;7.93;4.70;;;;;;;10.03;57.78;100732.72;4214901;28;20427;-52
2024/01/06 06:19:23;;;;;;;7.05;4.72;;;;;;;10.01;57.73;100734.53;4214211;28;20052;-53
2024/01/06 06:21:25;;;;;;;7.65;4.88;;;;;;;10.00;58.00;100733.69;4213442;28;20603;-52
2024/01/06 06:23:28;;;;;;;9.07;4.90;;;;;;;10.02;57.80;100744.16;4214444;28;20097;-52
2024/01/06 06:25:30;;;;;;;7.22;4.75;;;;;;;10.02;57.77;100749.41;4214696;28;20052;-54
2024/01/06 06:27:32;;;;;;;6.78;5.07;;;;;;;10.02;57.68;100749.41;4214417;28;20113;-55
2024/01/06 06:29:34;;;;;;;7.22;5.00;;;;;;;9.97;57.53;100754.78;4214636;28;20059;-54
2024/01/06 06:31:36;;;;;;;6.10;4.15;;;;;;;10.01;57.67;100761.69;4214707;28;20070;-50
2024/01/06 06:33:39;;;;;;;6.68;4.47;;;;;;;10.01;57.50;100764.31;4214699;28;20055;-53
2024/01/06 06:35:41;;;;;;;6.72;4.30;;;;;;;9.97;57.70;100757.44;4214108;28;20044;-55
2024/01/06 06:37:42;;;;;;;7.05;4.70;;;;;;;10.02;57.74;100766.00;4214273;28;20052;-51
2024/01/06 06:39:44;;;;;;;5.85;4.03;;;;;;;10.02;57.74;100773.88;4214260;28;20044;-51
2024/01/06 06:41:46;;;;;;;6.57;4.40;;;;;;;10.01;57.60;100766.06;4214516;28;20052;-51
2024/01/06 06:43:48;;;;;;;6.63;4.00;;;;;;;10.02;57.63;100773.88;4214271;28;20050;-50
2024/01/06 06:45:50;;;;;;;7.72;4.53;;;;;;;10.00;57.63;100773.09;4214144;28;20094;-52
2024/01/06 06:47:51;;;;;;;6.47;4.43;;;;;;;10.01;57.33;100771.31;4214298;28;20082;-52
2024/01/06 06:49:53;;;;;;;6.78;4.25;;;;;;;10.02;57.87;100776.53;4213862;28;20109;-51
2024/01/06 06:51:55;;;;;;;7.07;4.38;;;;;;;10.01;57.74;100777.47;4214271;28;20415;-51
2024/01/06 06:53:58;;;;;;;6.05;4.15;;;;;;;10.01;57.43;100785.34;4214194;28;20469;-50
2024/01/06 06:56:00;;;;;;;6.63;4.20;;;;;;;10.01;57.61;100787.09;4213970;28;20115;-51
2024/01/06 06:58:02;;;;;;;7.55;4.63;;;;;;;9.99;57.80;100779.25;4214033;28;20072;-52
2024/01/06 07:00:04;;;;;;;7.80;4.35;;;;;;;9.99;57.75;100791.53;4213830;28;20135;-52
2024/01/06 07:02:06;;;;;;;6.85;4.00;;;;;;;9.97;57.81;100788.09;4214174;28;20044;-51
2024/01/06 07:04:07;;;;;;;6.05;4.30;;;;;;;9.98;57.48;100793.31;4213789;28;20473;-50
2024/01/06 07:06:13;;;;;;;6.68;3.70;;;;;;;9.99;57.39;100800.28;4214132;28;20131;-53
2024/01/06 07:08:15;;;;;;;5.93;3.92;;;;;;;9.99;57.54;100800.28;4213980;28;20044;-51
2024/01/06 07:10:17;;;;;;;6.30;3.97;;;;;;;10.00;57.47;100803.75;4214112;28;20135;-52
2024/01/06 07:12:19;;;;;;;6.00;3.58;;;;;;;9.98;57.50;100806.44;4213124;28;20486;-52
2024/01/06 07:14:21;;;;;;;7.75;4.47;;;;;;;9.99;57.46;100818.69;4214098;28;20117;-53
2024/01/06 07:16:22;;;;;;;6.22;4.15;;;;;;;9.99;57.30;100816.03;4214032;28;20074;-51
2024/01/06 07:18:24;;;;;;;7.90;4.47;;;;;;;10.00;57.77;100816.91;4213408;28;20501;-50
2024/01/06 07:20:26;;;;;;;;;;;;;;;9.99;57.55;100823.06;4213042;28;20446;-51
2024/01/06 07:22:28;;;;;;;6.78;3.95;;;;;;;9.96;57.58;100829.25;4213893;28;20006;-50
2024/01/06 07:24:29;;;;;;;6.30;4.00;;;;;;;9.90;57.56;100806.69;4213568;28;20051;-49
2024/01/06 07:26:31;;;;;;;8.02;3.97;;;;;;;9.98;57.47;100829.25;4213656;28;20040;-52
2024/01/06 07:28:33;;;;;;;7.93;3.65;;;;;;;9.97;57.43;100831.00;4213751;28;20101;-47
2024/01/06 07:30:34;;;;;;;6.03;3.72;;;;;;;9.96;57.62;100837.16;4212391;28;20067;-48
2024/01/06 07:32:36;;;;;;;6.30;3.55;;;;;;;9.96;57.40;100836.31;4213539;28;20094;-50
2024/01/06 07:34:38;;;;;;;6.75;4.50;;;;;;;9.97;57.46;100845.91;4213607;28;20048;-51
2024/01/06 07:36:40;;;;;;;6.55;4.03;;;;;;;9.97;57.54;100846.75;4212432;28;20117;-52
2024/01/06 07:38:42;;;;;;;6.15;3.72;;;;;;;9.97;57.74;100854.63;4213621;28;20503;-51
2024/01/06 07:40:44;;;;;;;7.47;3.78;;;;;;;9.97;57.40;100859.88;4213642;28;20048;-51
2024/01/06 07:42:46;;;;;;;7.35;3.75;;;;;;;9.96;57.70;100858.16;4213362;28;20044;-54
2024/01/06 07:44:47;;;;;;;7.43;3.95;;;;;;;9.95;57.87;100847.72;4213386;28;20067;-48
2024/01/06 07:46:49;;;;;;;6.15;4.03;;;;;;;9.90;57.21;100842.59;4213080;28;20076;-52
2024/01/06 07:48:51;;;;;;;7.07;4.10;;;;;;;9.95;57.41;100859.09;4212097;28;20562;-48
2024/01/06 07:50:53;;;;;;;6.03;3.42;;;;;;;9.94;57.51;100860.00;4213283;28;20526;-49
2024/01/06 07:52:54;;;;;;;6.07;3.88;;;;;;;9.97;57.85;100866.94;4213470;28;20122;-53
2024/01/06 07:54:59;;;;;;;7.05;4.03;;;;;;;9.98;57.31;100864.25;4213134;28;20105;-49
2024/01/06 07:57:01;;;;;;;5.95;3.78;;;;;;;9.97;57.36;100872.19;4213337;28;20093;-54
2024/01/06 07:59:04;;;;;;;6.15;3.80;;;;;;;9.95;57.49;100868.72;4212997;28;20059;-50
2024/01/06 08:01:05;;;;;;;;;;;;;;;9.94;57.23;100873.13;4213562;28;20467;-51
2024/01/06 08:03:07;;;;;;;7.40;3.90;;;;;;;9.93;57.77;100874.03;4213074;28;20027;-49
2024/01/06 08:05:09;;;;;;;7.40;3.97;;;;;;;9.95;57.16;100877.50;4213319;28;20075;-51
2024/01/06 08:07:11;;;;;;;;;;;;;;;9.94;57.27;100875.75;4213628;28;20063;-49
2024/01/06 08:09:13;;;;;;;6.32;3.40;;;;;;;9.92;57.43;100877.56;4213224;28;19926;-52
2024/01/06 08:11:14;;;;;;;5.85;3.35;;;;;;;9.94;57.57;100881.03;4211998;28;20043;-53
2024/01/06 08:13:16;;;;;;;6.22;3.83;;;;;;;9.96;57.45;100886.22;4213230;28;20076;-52
2024/01/06 08:15:18;;;;;;;6.72;3.58;;;;;;;9.91;57.71;100892.50;4213346;28;20087;-53
2024/01/06 08:17:20;;;;;;;6.32;3.78;;;;;;;9.90;57.69;100885.50;4213284;28;20052;-52
2024/01/06 08:19:25;;;;;;;6.47;3.53;;;;;;;9.91;57.18;100894.22;4212974;28;20047;-54
2024/01/06 08:21:27;;;;;;;7.07;3.85;;;;;;;9.93;57.11;100902.06;4213539;28;20067;-53
2024/01/06 08:23:29;;;;;;;;;;;;;;;9.91;57.22;100904.75;4216375;28;20048;-53
2024/01/06 08:25:31;;;;;;;5.25;3.55;;;;;;;9.87;57.37;100905.75;4216690;28;20372;-53
2024/01/06 08:27:33;;;;;;;6.15;3.38;;;;;;;9.87;57.41;100903.97;4216554;28;20443;-51
2024/01/06 08:29:35;;;;;;;6.50;3.70;;;;;;;9.89;57.30;100909.19;4216504;28;20052;-54
2024/01/06 08:31:37;;;;;;;5.93;3.47;;;;;;;9.88;57.26;100913.59;4215767;28;20059;-54
2024/01/06 08:33:39;;;;;;;6.38;3.47;;;;;;;9.90;57.04;100910.91;4216303;28;20056;-52
2024/01/06 08:35:40;;;;;;;6.78;3.67;;;;;;;9.91;57.24;100916.13;4216359;28;20510;-49
2024/01/06 08:37:43;;;;;;;5.85;3.30;;;;;;;9.89;57.13;100910.06;4215056;28;20127;-52
2024/01/06 08:39:45;;;;;;;6.45;3.28;;;;;;;9.87;57.55;100914.47;4216224;28;20105;-53
2024/01/06 08:41:46;;;;;;;5.47;3.40;;;;;;;9.89;56.78;100912.69;4216369;28;20048;-53
2024/01/06 08:43:48;;;;;;;5.90;3.15;;;;;;;9.88;56.89;100921.47;4216309;28;20048;-49
2024/01/06 08:45:50;;;;;;;5.28;3.13;;;;;;;9.86;57.33;100928.53;4215798;28;20058;-53
2024/01/06 08:47:52;;;;;;;6.60;3.80;;;;;;;9.88;57.10;100925.88;4216202;28;20047;-52
2024/01/06 08:49:54;;;;;;;5.97;3.50;;;;;;;9.89;57.18;100924.94;4216088;28;20044;-51
2024/01/06 08:51:56;;;;;;;;;;;;;;;9.89;57.17;100930.19;4216541;28;20051;-52
2024/01/06 08:53:58;;;;;;;7.07;3.67;;;;;;;9.85;57.35;100928.56;4216249;28;19924;-52
2024/01/06 08:56:00;;;;;;;7.13;3.85;;;;;;;9.88;57.24;100937.22;4215826;28;20503;-53
2024/01/06 08:58:02;;;;;;;7.00;3.97;;;;;;;9.89;57.00;100944.22;4216021;28;20059;-54
2024/01/06 09:00:05;;;;;;;6.00;4.13;;;;;;;9.89;57.19;100944.22;4215334;28;20136;-52
2024/01/06 09:02:07;;;;;;;8.07;4.57;;;;;;;9.91;56.98;100944.16;4215867;28;20350;-52
2024/01/06 09:04:11;;;;;;;7.05;4.25;;;;;;;9.91;57.17;100944.16;4216010;28;20109;-52
2024/01/06 09:06:13;;;;;;;8.30;4.57;;;;;;;9.89;56.75;100944.22;4215902;28;20048;-54
2024/01/06 09:08:18;;;;;;;7.70;4.45;;;;;;;9.89;57.08;100948.56;4215644;28;20044;-52
2024/01/06 09:10:19;;;;;;;7.70;4.55;;;;;;;9.88;57.25;100945.09;4215645;28;20491;-53
2024/01/06 09:12:21;;;;;;;8.63;4.93;;;;;;;9.88;56.89;100949.50;4204065;28;20048;-52
2024/01/06 09:14:23;;;;;;;8.63;4.35;;;;;;;9.91;56.88;100949.41;4196926;28;20078;-52
2024/01/06 09:16:24;;;;;;;7.10;4.63;;;;;;;9.87;56.87;100948.63;4196687;28;20131;-51
2024/01/06 09:18:27;;;;;;;;;;;;;;;9.89;56.96;100949.47;4198675;28;20056;-53
2024/01/06 09:20:29;;;;;;;;;;;;;;;9.91;57.10;100949.41;4199076;28;19963;-53
2024/01/06 09:22:30;;;;;;;;;;;;;;;9.87;57.10;100955.66;4199108;28;20002;-53
2024/01/06 09:24:33;;;;;;;;;;;;;;;9.89;56.73;100956.47;4199294;28;19931;-54
2024/01/06 09:26:35;;;;;;;;;;;;;;;9.89;56.96;100957.34;4199379;28;19931;-52
2024/01/06 09:28:37;;;;;;;;;;;;;;;9.87;56.68;100960.91;4199050;28;19927;-53
2024/01/06 09:30:38;;;;;;;;;;;;;;;9.88;56.94;100963.50;4199048;28;19932;-53
2024/01/06 09:32:41;;;;;;;;;;;;;;;9.91;56.85;100971.31;4199186;28;19920;-52